RJBB/KIX METAR and TAF weather

Enter ICAO airport designator
Station Type Date Time Source
RJBB METAR 2021/09/28 03:30 UTC NOAA

RJBB 280330Z 33003KT 9999 FEW020 BKN100 BKN150 25/19 Q1014 NOSIG


Station Type Date Time Source
RJBB Decoded METAR 2021/09/28 03:30 UTC NOAA

Kansai International Airport, Japan (RJBB) 34-25N 135-15E 8M
Sep 27, 2021 - 11:30 PM EDT / 2021.09.28 0330 UTC
Wind: from the NNW (330 degrees) at 3 MPH (3 KT):0
Visibility: greater than 7 mile(s):0
Sky conditions: mostly cloudy
Temperature: 77 F (25 C)
Dew Point: 66 F (19 C)
Relative Humidity: 69%
Pressure (altimeter): 29.94 in. Hg (1014 hPa)
ob: RJBB 280330Z 33003KT 9999 FEW020 BKN100 BKN150 25/19 Q1014 NOSIG
cycle: 3

Station Type Date Time Source
RJBB TAF 2021/09/27 18:28 UTC NOAA

TAF RJBB 271705Z 2718/2900 07006KT 9999 FEW020
BECMG 2806/2809 27004KT
BECMG 2812/2815 07006KT

Example: see airport list